• Join FlightAware (Why Join?)
  • Login
  • US Flag 
02:35AM EDT


 

Airport Tracker/Info


-or-


 

Live Flight TrackerFlight Track Log ✈ AAL297 ✈ 24-Apr-2013 ✈ KDFW - KLAX

Flight Track Log - Related Links

Times and Time Zones

All times are in EDT time to prevent confusion due to time zone crossing. See the AAL297 flight status page for this flight to view local times or setup timezone preferences in your user account.

Time Position Orientation Groundspeed Altitude Reporting Facility
EDT Latitude Longitude Course Direction KTS MPH feet Rate Location/Type
02:35PM 32.9167 -97.0500 292° West 151 174 2,500  Level Dallas / Fort Worth TRACON
02:36PM 32.9667 -97.0667 344° North 221 254 4,500 2,340 Climbing Dallas / Fort Worth TRACON
02:37PM 32.6833 -97.1902 270° West  Level FlightAware Approximate
02:37PM 33.0167 -97.1167 320° Northwest 259 298 7,300  Level Dallas / Fort Worth TRACON
02:38PM 32.7076 -97.3043 293° West  Level FlightAware Approximate
02:38PM 33.0000 -97.2167 259° West 257 296 9,800  Level Dallas / Fort Worth TRACON
02:39PM 32.7482 -97.4158 293° West  Level FlightAware Approximate
02:39PM 32.9833 -97.3000 257° West 261 300 10,100  Level Dallas / Fort Worth TRACON
02:40PM 32.7872 -97.5280 292° West  Level FlightAware Approximate
02:40PM 32.9544 -97.4036 252° West 311 358 11,400  Level Fort Worth Center
02:41PM 32.9231 -97.5222 253° West 330 380 14,100 2,640 Climbing Fort Worth Center
02:42PM 32.8936 -97.6336 253° West 335 386 16,700 2,220 Climbing Fort Worth Center
02:43PM 32.8664 -97.7422 253° West 346 398 18,600 1,740 Climbing Fort Worth Center
02:44PM 32.8639 -97.8636 269° West 357 411 20,200 1,680 Climbing Fort Worth Center
02:45PM 32.8947 -97.9850 287° West 370 426 22,000 1,560 Climbing Fort Worth Center
02:46PM 32.9192 -98.0792 287° West 377 434 23,400 1,500 Climbing Fort Worth Center
02:47PM 32.9603 -98.2181 289° West 395 455 25,000 1,500 Climbing Fort Worth Center
02:48PM 32.9969 -98.3447 289° West 400 460 26,400 1,380 Climbing Fort Worth Center
02:49PM 33.0314 -98.4664 289° West 400 460 27,800 1,200 Climbing Fort Worth Center
02:50PM 33.0658 -98.5933 288° West 400 460 28,900 1,440 Climbing Fort Worth Center
02:51PM 33.1019 -98.7203 289° West 406 467 30,700 1,560 Climbing Fort Worth Center
02:52PM 33.1361 -98.8450 288° West 406 467 32,100 1,620 Climbing Fort Worth Center
02:53PM 33.1722 -98.9669 290° West 395 455 34,000 1,980 Climbing Fort Worth Center
02:54PM 33.2042 -99.0867 288° West 390 449 36,100 1,680 Climbing Fort Worth Center
02:55PM 33.2358 -99.2017 288° West 379 436 37,400 900 Climbing Fort Worth Center
02:56PM 33.2697 -99.3192 289° West 374 430 38,000 300 Climbing Fort Worth Center
02:57PM 33.3014 -99.4367 288° West 374 430 38,000  Level Fort Worth Center
02:58PM 33.3347 -99.5542 289° West 374 430 38,000  Level Fort Worth Center
02:59PM 33.3642 -99.6719 287° West 374 430 38,000  Level Fort Worth Center
03:00PM 33.3972 -99.7897 289° West 374 430 38,000  Level Fort Worth Center
03:01PM 33.4286 -99.9050 288° West 374 430 38,000  Level Fort Worth Center
03:02PM 33.4575 -100.0228 286° West 369 425 38,000  Level Fort Worth Center
03:03PM 33.4883 -100.1383 288° West 369 425 38,000  Level Fort Worth Center
03:04PM 33.5211 -100.2564 288° West 369 425 38,000  Level Fort Worth Center
03:05PM 33.5519 -100.3744 287° West 364 419 38,000  Level Fort Worth Center
03:06PM 33.5825 -100.4878 288° West 364 419 38,000  Level Fort Worth Center
03:07PM 33.6131 -100.6036 288° West 369 425 38,000  Level Fort Worth Center
03:08PM 33.6492 -100.7347 288° West 369 425 38,000  Level Fort Worth Center
03:09PM 33.6736 -100.8378 286° West 364 419 38,000  Level Fort Worth Center
03:10PM 33.7075 -100.9664 288° West 364 419 38,000  Level Fort Worth Center
03:11PM 33.7297 -101.0672 285° West 364 419 38,000  Level Fort Worth Center
03:12PM 33.7656 -101.1961 289° West 369 425 38,000  Level Fort Worth Center
03:13PM 33.7914 -101.3022 286° West 362 417 38,000  Level Fort Worth Center
03:14PM 33.8231 -101.4286 287° West 367 422 38,000  Level Fort Worth Center
03:15PM 33.8489 -101.5325 287° West 367 422 38,000  Level Fort Worth Center
03:16PM 33.8842 -101.6592 289° West 367 422 38,000  Level Fort Worth Center
03:17PM 33.9100 -101.7631 287° West 367 422 38,000  Level Fort Worth Center
03:18PM 33.9369 -101.8794 286° West 367 422 38,000  Level Fort Worth Center
03:19PM 33.9678 -102.0089 286° West 367 422 38,000  Level Fort Worth Center
03:20PM 33.9933 -102.1128 287° West 367 422 38,000 120 Level Fort Worth Center
03:21PM 34.0239 -102.2397 286° West 367 422 38,300 600 Climbing Fort Worth Center
03:22PM 34.0492 -102.3414 287° West 367 422 39,200 840 Climbing Fort Worth Center
03:23PM 34.0683 -102.4164 287° West 359 413 39,700 480 Climbing Albuquerque Center
03:24PM 34.0964 -102.5311 286° West 358 412 40,000 120 Climbing Albuquerque Center
03:25PM 34.1244 -102.6469 286° West 360 414 40,000  Level Albuquerque Center
03:26PM 34.1531 -102.7608 287° West 357 411 40,000  Level Albuquerque Center
03:27PM 34.1861 -102.9011 286° West 361 415 40,000  Level Albuquerque Center
03:28PM 34.2139 -103.0178 286° West 363 418 40,000  Level Albuquerque Center
03:29PM 34.2433 -103.1450 286° West 367 422 40,000  Level Albuquerque Center
03:30PM 34.2708 -103.2653 285° West 367 422 40,000  Level Albuquerque Center
03:31PM 34.2994 -103.3836 286° West 364 419 40,000  Level Albuquerque Center
03:32PM 34.3267 -103.5014 286° West 361 415 40,000  Level Albuquerque Center
03:33PM 34.3531 -103.6186 285° West 359 413 40,000  Level Albuquerque Center
03:34PM 34.3803 -103.7358 286° West 358 412 40,000  Level Albuquerque Center
03:35PM 34.4114 -103.8731 285° West 358 412 40,000  Level Albuquerque Center
03:36PM 34.4378 -103.9906 285° West 358 412 40,000  Level Albuquerque Center
03:37PM 34.4639 -104.1056 285° West 354 407 40,000  Level Albuquerque Center
03:38PM 34.4911 -104.2219 286° West 354 407 40,000  Level Albuquerque Center
03:39PM 34.5167 -104.3411 285° West 357 411 40,000  Level Albuquerque Center
03:40PM 34.5436 -104.4594 285° West 359 413 40,000  Level Albuquerque Center
03:41PM 34.5703 -104.5767 285° West 357 411 40,000  Level Albuquerque Center
03:43PM 34.5972 -104.6981 285° West 364 419 40,000  Level Albuquerque Center
03:44PM 34.6272 -104.8383 285° West 364 419 40,000  Level Albuquerque Center
03:45PM 34.6539 -104.9583 285° West 363 418 40,000  Level Albuquerque Center
03:46PM 34.6811 -105.0792 285° West 366 421 40,000  Level Albuquerque Center
03:47PM 34.7069 -105.1986 285° West 364 419 40,000  Level Albuquerque Center
03:48PM 34.7331 -105.3181 285° West 363 418 40,000  Level Albuquerque Center
03:49PM 34.7578 -105.4392 284° West 364 419 40,000  Level Albuquerque Center
03:50PM 34.7850 -105.5603 285° West 366 421 40,000  Level Albuquerque Center
03:51PM 34.8100 -105.6800 284° West 363 418 40,000  Level Albuquerque Center
03:52PM 34.8403 -105.8206 285° West 364 419 40,000  Level Albuquerque Center
03:53PM 34.8628 -105.9264 285° West 363 418 40,000  Level Albuquerque Center
03:54PM 34.8858 -106.0456 283° West 362 417 40,000  Level Albuquerque Center
03:55PM 34.9106 -106.1631 284° West 361 415 40,000  Level Albuquerque Center
03:56PM 34.9403 -106.3072 284° West 365 420 40,000  Level Albuquerque Center
03:57PM 34.9653 -106.4269 284° West 365 420 40,000  Level Albuquerque Center
03:58PM 34.9906 -106.5578 283° West 366 421 40,000  Level Albuquerque Center
03:59PM 35.0133 -106.6731 284° West 367 422 40,000  Level Albuquerque Center
04:00PM 35.0397 -106.8064 284° West 363 418 40,000  Level Albuquerque Center
04:01PM 35.0403 -106.9211 270° West 355 409 40,000  Level Albuquerque Center
04:02PM 35.0403 -107.0378 270° West 360 414 40,000  Level Albuquerque Center
04:03PM 35.0300 -107.1744 265° West 362 417 40,000  Level Albuquerque Center
04:04PM 35.0194 -107.2861 263° West 370 426 40,000  Level Albuquerque Center
04:06PM 35.0006 -107.5569 265° West 364 419 40,000  Level Albuquerque Center
04:07PM 34.9911 -107.6803 265° West 366 421 40,000  Level Albuquerque Center
04:08PM 34.9811 -107.8036 264° West 365 420 40,000  Level Albuquerque Center
04:09PM 34.9711 -107.9433 265° West 364 419 40,000  Level Albuquerque Center
04:10PM 34.9625 -108.0594 265° West 360 414 40,000  Level Albuquerque Center
04:11PM 34.9511 -108.1953 264° West 361 415 40,000  Level Albuquerque Center
04:12PM 34.9431 -108.3108 265° West 358 412 40,000  Level Albuquerque Center
04:13PM 34.9331 -108.4289 264° West 362 417 40,000  Level Albuquerque Center
04:15PM 34.9219 -108.5647 264° West 362 417 40,000  Level Albuquerque Center
04:16PM 34.9125 -108.6803 264° West 360 414 40,000  Level Albuquerque Center
04:17PM 34.9014 -108.8175 264° West 362 417 40,000  Level Albuquerque Center
04:18PM 34.8922 -108.9342 265° West 361 415 40,000  Level Albuquerque Center
04:19PM 34.8800 -109.0714 264° West 363 418 40,000  Level Albuquerque Center
04:20PM 34.8694 -109.1883 264° West 363 418 40,000  Level Albuquerque Center
04:21PM 34.8567 -109.3261 264° West 364 419 40,000  Level Albuquerque Center
04:22PM 34.8467 -109.4447 264° West 365 420 40,000  Level Albuquerque Center
04:23PM 34.8342 -109.5767 263° West 356 410 40,000  Level Albuquerque Center
04:24PM 34.8231 -109.6967 264° West 364 419 40,000  Level Albuquerque Center
04:25PM 34.8122 -109.8153 264° West 367 422 40,000  Level Albuquerque Center
04:26PM 34.7992 -109.9531 263° West 367 422 40,000  Level Albuquerque Center
04:27PM 34.7886 -110.0706 264° West 366 421 40,000  Level Albuquerque Center
04:28PM 34.7772 -110.2150 265° West 377 434 40,000  Level Albuquerque Center
04:29PM 34.7661 -110.3347 264° West 374 430 40,000  Level Albuquerque Center
04:30PM 34.7514 -110.4711 263° West 368 423 40,000  Level Albuquerque Center
04:31PM 34.7394 -110.5881 263° West 366 421 40,000  Level Albuquerque Center
04:32PM 34.7253 -110.7286 263° West 370 426 40,000  Level Albuquerque Center
04:33PM 34.7119 -110.8436 262° West 375 432 40,000  Level Albuquerque Center
04:34PM 34.6997 -110.9678 263° West 374 430 40,000  Level Albuquerque Center
04:35PM 34.6872 -111.0903 263° West 371 427 40,000  Level Albuquerque Center
04:36PM 34.6717 -111.2378 263° West 369 425 40,000  Level Albuquerque Center
04:37PM 34.6581 -111.3608 262° West 369 425 40,000  Level Albuquerque Center
04:38PM 34.6450 -111.4839 263° West 369 425 40,000  Level Albuquerque Center
04:39PM 34.6322 -111.6067 263° West 369 425 40,000  Level Albuquerque Center
04:40PM 34.6192 -111.7286 263° West 368 423 40,000  Level Albuquerque Center
04:41PM 34.6025 -111.8767 262° West 369 425 40,000  Level Albuquerque Center
04:42PM 34.5892 -112.0014 263° West 372 428 40,000  Level Albuquerque Center
04:43PM 34.5753 -112.1258 262° West 374 430 40,000  Level Albuquerque Center
04:45PM 34.5606 -112.2500 262° West 374 430 40,000  Level Albuquerque Center
04:46PM 34.5469 -112.3769 263° West 375 432 40,000 -300 Level Albuquerque Center
04:47PM 34.5331 -112.5031 262° West 376 433 39,400 -1,020 Descending Albuquerque Center
04:48PM 34.5164 -112.6514 262° West 373 429 38,000 -720 Descending Albuquerque Center
04:49PM 34.5011 -112.7786 262° West 378 435 38,000  Level Albuquerque Center
04:50PM 34.4861 -112.9086 262° West 386 444 38,000  Level Albuquerque Center
04:51PM 34.4706 -113.0394 262° West 392 451 38,000  Level Albuquerque Center
04:52PM 34.4550 -113.1694 262° West 393 452 38,000  Level Albuquerque Center
04:53PM 34.4356 -113.3253 261° West 392 451 38,000  Level Albuquerque Center
04:54PM 34.4200 -113.4517 262° West 391 450 38,000  Level Albuquerque Center
04:55PM 34.4031 -113.5831 261° West 394 453 38,000  Level Albuquerque Center
04:56PM 34.3878 -113.7133 262° West 390 449 38,000  Level Albuquerque Center
04:57PM 34.3728 -113.8417 262° West 388 447 38,000  Level Albuquerque Center
04:58PM 34.3528 -114.0000 261° West 390 449 38,000  Level Albuquerque Center
04:59PM 34.3339 -114.1364 261° West 397 457 38,000  Level Albuquerque Center
05:00PM 34.3156 -114.2706 261° West 402 463 38,000  Level Albuquerque Center
05:01PM 34.2981 -114.4025 261° West 401 461 38,000  Level Albuquerque Center
05:02PM 34.2919 -114.4656 263° West 402 463 38,000  Level Los Angeles Center
05:03PM 34.2736 -114.5989 261° West 403 464 38,000  Level Los Angeles Center
05:04PM 34.2558 -114.7347 261° West 409 471 38,000  Level Los Angeles Center
05:05PM 34.2347 -114.8975 261° West 410 472 38,000  Level Los Angeles Center
05:06PM 34.2158 -115.0328 260° West 410 472 38,000  Level Los Angeles Center
05:07PM 34.1975 -115.1681 261° West 410 472 38,000  Level Los Angeles Center
05:08PM 34.1781 -115.3033 260° West 410 472 38,000  Level Los Angeles Center
05:09PM 34.1586 -115.4411 260° West 415 478 38,000  Level Los Angeles Center
05:10PM 34.1358 -115.6039 260° West 412 474 38,000  Level Los Angeles Center
05:11PM 34.1167 -115.7422 261° West 417 480 38,000  Level Los Angeles Center
05:12PM 34.0967 -115.8789 260° West 416 479 38,000 -60 Level Los Angeles Center
05:13PM 34.0756 -116.0133 259° West 413 475 37,900 -1,080 Descending Los Angeles Center
05:14PM 34.0558 -116.1519 260° West 419 482 35,800 -2,640 Descending Los Angeles Center
05:15PM 34.0339 -116.2939 259° West 430 495 32,500 -3,780 Descending Los Angeles Center
05:16PM 34.0072 -116.4744 260° West 455 524 28,000 -3,660 Descending Los Angeles Center
05:17PM 33.9936 -116.6258 264° West 456 525 24,900 -2,820 Descending Los Angeles Center
05:18PM 33.9825 -116.7717 265° West 442 509 22,200 -2,640 Descending Los Angeles Center
05:19PM 33.9714 -116.9097 264° West 423 487 19,500 -2,280 Descending Los Angeles Center
05:20PM 33.9603 -117.0406 264° West 401 461 17,500 -1,560 Descending Los Angeles Center
05:21PM 33.9500 -117.1833 265° West 355 409 16,300 -1,020 Descending Southern California TRACON
05:22PM 33.9333 -117.3167 261° West 363 418 15,400 -960 Descending Southern California TRACON
05:23PM 33.9500 -117.4167 281° West 356 410 14,500 -1,020 Descending Southern California TRACON
05:24PM 33.9833 -117.5167 292° West 331 381 13,500 -1,320 Descending Southern California TRACON
05:25PM 34.0167 -117.6167 292° West 321 369 11,900 -1,800 Descending Southern California TRACON
05:26PM 34.0000 -117.7333 260° West 308 354 10,000 -1,680 Descending Southern California TRACON
05:27PM 34.0000 -117.8333 270° West 301 346 8,600 -1,440 Descending Southern California TRACON
05:28PM 33.9833 -117.9167 256° West 294 338 7,200 -1,380 Descending Southern California TRACON
05:29PM 33.9667 -118.0167 259° West 287 330 5,900 -1,260 Descending Southern California TRACON
05:30PM 33.9667 -118.1000 270° West 255 293 4,700 -1,200 Descending Southern California TRACON
05:31PM 33.9617 -118.1453 262° West 261 300 4,000 -1,200 Descending Los Angeles Center